Lee's Summit, MO (64065)

9:35 PM CDT on September 02, 2014 (GMT -0500)
Gateway to Faery | Change Station
CLOSE
Current Station
Personal Weather Station
Location: Raytown, MO
Elevation: 991 ft
Nearby Weather Stations

Elev 991 ft 38.98 °N, 94.45 °W | Updated 5 seconds ago

Clear
Clear
73.1 °F
Feels Like 73 °F
N
0.0
Wind Variable Wind from SE
Gusts 0.0 mph

Today
High -- | Low -- °F
--% Chance of Precip.
Yesterday
High -- | Low -- °F
Precip. -- in
6:47 AM 7:46 PM
First Quarter, 57% visible
Pressure 29.95 in
Visibility 10.0 miles
Clouds Clear
Heat Index 73 °F
Dew Point 67 °F
Humidity 81%
Rainfall 0.00 in
Snow Depth Not available.
UV 0 out of 12
Pollen 9.00 out of 12
Ozone Good
PM2.5 Good
Flu Activity Not available.
METAR KLXT 030153Z AUTO 14003KT 10SM CLR 24/21 A2997 RMK AO2 SLP141 T02390206

More Conditions Fewer Conditions

Pressure 29.95 in
Visibility 10.0 miles
Clouds Clear
Heat Index 73 °F
Dew Point 67 °F
Humidity 81%
Rainfall 0.00 in
Snow Depth Not available.
UV 0 out of 12
Pollen 9.00 out of 12
Ozone Good
PM2.5 Good
Flu Activity Not available.
METAR KLXT 030153Z AUTO 14003KT 10SM CLR 24/21 A2997 RMK AO2 SLP141 T02390206

More Conditions Fewer Conditions

10-Day Weather Forecast

Almanac

Astronomy

Sep. 02, 2014 Rise Set
Actual Time 6:47 AM CDT 7:46 PM CDT
Civil Twilight 6:20 AM CDT 8:13 PM CDT
Nautical Twilight 5:47 AM CDT 8:45 PM CDT
Astronomical Twilight 5:13 AM CDT 9:19 PM CDT
Moon 2:28 PM CDT (9/2) No Moon Set
Length of Visible Light 13h 53m
Length of Day
12h 59m
Tomorrow will be 2m 26s shorter.
First Quarter, 57% of the Moon is Illuminated
Today
First Quarter
Sep 8
Full
Sep 15
Last Quarter
Sep 24
New
Oct 1
First Quarter

Today's Extremes

State Highs State Lows

Community

WunderPhotos

Upload Photos

1,749,845 photos uploaded!

Nearby

Air Quality

  Air Quality AQ Index Pollutant
Yesterday Moderate
PM2.5
Yesterday Good
OZONE
Current Good
PM2.5
Current Good
OZONE
Tuesday Moderate
OZONE
Wednesday Good
OZONE

Snow Depth

Station Depth Elevation
No new snow has been reported.

Earthquake Activity

City Distance Mag. Time & Date
No recent earthquake activity has been reported nearby.
Minimum magnitude displayed is 2.5.

Coastal Water Temperatures

Place Temperature
No Stations Reporting

Nearby Weather Stations